Time;durP1;ratioP1;P1;durP2;ratioP2;P2;SDS_P1;SDS_P2;PMS_P1;PMS_P2;Temp;Humidity;BMP_temperature;BMP_pressure;BME280_temperature;BME280_humidity;BME280_pressure;Samples;Min_cycle;Max_cycle;Signal;HPM_P1;HPM_P2
2023/10/22 00:02:21;;;;;;;0.80;0.80;;;18.60;80.30;;;;;;5004329;28;20192;-70
2023/10/22 00:04:47;;;;;;;0.93;0.75;;;18.60;80.30;;;;;;5036088;28;20226;-71
2023/10/22 00:07:16;;;;;;;0.77;0.77;;;18.60;80.30;;;;;;5019505;28;20670;-70
2023/10/22 00:09:42;;;;;;;0.88;0.70;;;18.60;80.30;;;;;;5017902;28;20215;-71
2023/10/22 00:12:08;;;;;;;0.65;0.65;;;18.60;80.20;;;;;;5041006;28;20178;-71
2023/10/22 00:14:34;;;;;;;0.90;0.80;;;18.60;80.30;;;;;;5024932;28;20270;-70
2023/10/22 00:17:00;;;;;;;1.45;0.60;;;18.60;80.20;;;;;;5019201;28;20226;-70
2023/10/22 00:19:45;;;;;;;0.80;0.80;;;18.60;80.20;;;;;;5014724;28;20552;-71
2023/10/22 00:22:12;;;;;;;0.70;0.70;;;18.60;80.20;;;;;;5023446;28;20188;-71
2023/10/22 00:24:38;;;;;;;0.82;0.82;;;18.60;80.30;;;;;;5019310;28;20561;-70
2023/10/22 00:27:04;;;;;;;1.00;0.70;;;18.60;80.30;;;;;;5017622;28;20235;-70
2023/10/22 00:29:30;;;;;;;0.82;0.80;;;18.60;80.30;;;;;;5019488;28;20203;-70
2023/10/22 00:31:56;;;;;;;0.70;0.70;;;18.60;80.30;;;;;;5028709;28;20232;-70
2023/10/22 00:34:22;;;;;;;1.17;0.80;;;18.60;80.20;;;;;;5003772;28;20263;-70
2023/10/22 00:36:47;;;;;;;0.77;0.77;;;18.60;80.30;;;;;;5038340;28;20191;-71
2023/10/22 00:39:13;;;;;;;0.82;0.82;;;18.60;80.20;;;;;;5021874;28;20306;-71
2023/10/22 00:41:39;;;;;;;0.77;0.77;;;18.60;80.20;;;;;;5021393;28;20183;-70
2023/10/22 00:44:05;;;;;;;0.88;0.88;;;18.60;80.20;;;;;;5018870;28;20229;-71
2023/10/22 00:46:31;;;;;;;0.70;0.70;;;18.60;80.20;;;;;;5023525;28;20254;-71
2023/10/22 00:48:57;;;;;;;0.70;0.70;;;18.60;80.20;;;;;;5004492;28;20294;-71
2023/10/22 00:51:24;;;;;;;0.93;0.93;;;18.60;80.20;;;;;;5019863;28;20278;-70
2023/10/22 00:53:51;;;;;;;0.60;0.60;;;18.60;80.20;;;;;;5033248;28;20227;-70
2023/10/22 00:56:17;;;;;;;0.70;0.70;;;18.60;80.20;;;;;;5025036;28;20175;-70
2023/10/22 00:58:44;;;;;;;0.70;0.70;;;18.60;81.00;;;;;;5036525;28;20232;-70
2023/10/22 01:01:10;;;;;;;0.77;0.77;;;18.60;80.20;;;;;;5020907;28;20198;-70
2023/10/22 01:03:37;;;;;;;0.90;0.90;;;18.60;80.20;;;;;;5018863;28;20207;-70
2023/10/22 01:06:06;;;;;;;0.75;0.75;;;18.60;80.20;;;;;;5018766;28;20257;-71
2023/10/22 01:08:34;;;;;;;1.50;0.90;;;18.60;80.20;;;;;;5013080;28;20294;-70
2023/10/22 01:11:07;;;;;;;0.60;0.60;;;18.60;80.20;;;;;;5035876;28;20175;-71
2023/10/22 01:13:34;;;;;;;0.80;0.80;;;18.60;80.20;;;;;;5000694;28;20220;-71
2023/10/22 01:16:01;;;;;;;0.70;0.70;;;18.60;80.20;;;;;;5020131;28;20215;-71
2023/10/22 01:18:27;;;;;;;0.80;0.80;;;18.60;80.20;;;;;;5001481;28;20183;-70
2023/10/22 01:20:53;;;;;;;0.93;0.88;;;18.60;80.20;;;;;;5016257;28;20241;-71
2023/10/22 01:23:19;;;;;;;0.77;0.77;;;18.60;80.20;;;;;;5001679;28;20186;-70
2023/10/22 01:25:45;;;;;;;1.02;1.00;;;18.60;80.20;;;;;;5031018;28;20196;-70
2023/10/22 01:28:11;;;;;;;0.68;0.68;;;18.60;80.20;;;;;;5035276;28;20233;-71
2023/10/22 01:30:37;;;;;;;0.73;0.73;;;18.60;80.20;;;;;;5017815;28;20566;-71
2023/10/22 01:33:03;;;;;;;0.73;0.73;;;18.60;80.20;;;;;;5017848;28;20194;-71
2023/10/22 01:35:29;;;;;;;0.98;0.90;;;18.60;80.10;;;;;;5019343;28;20226;-71
2023/10/22 01:37:55;;;;;;;1.17;0.90;;;18.60;80.20;;;;;;5016092;28;20242;-71
2023/10/22 01:40:21;;;;;;;1.08;0.98;;;18.60;80.10;;;;;;5016361;28;20191;-71
2023/10/22 01:42:47;;;;;;;0.80;0.65;;;18.60;80.10;;;;;;5033819;28;20681;-70
2023/10/22 01:45:13;;;;;;;1.02;0.93;;;18.60;80.20;;;;;;5018873;28;20219;-70
2023/10/22 01:47:39;;;;;;;0.90;0.90;;;18.60;80.10;;;;;;5017713;28;20194;-70
2023/10/22 01:50:06;;;;;;;0.80;0.80;;;18.60;80.10;;;;;;5033740;28;20704;-70
2023/10/22 01:52:32;;;;;;;0.70;0.70;;;18.60;80.10;;;;;;5013106;28;20191;-70
2023/10/22 01:54:58;;;;;;;0.70;0.70;;;18.60;80.10;;;;;;5002253;28;20206;-71
2023/10/22 01:57:24;;;;;;;1.27;0.70;;;18.60;80.10;;;;;;5017696;28;20194;-70
2023/10/22 01:59:51;;;;;;;0.85;0.80;;;18.60;80.10;;;;;;5001135;28;20341;-70
2023/10/22 02:02:17;;;;;;;0.80;0.80;;;18.60;80.00;;;;;;5003730;28;20178;-70
2023/10/22 02:04:43;;;;;;;0.75;0.75;;;18.60;80.00;;;;;;5012230;28;20297;-70
2023/10/22 02:07:10;;;;;;;0.80;0.80;;;18.50;80.00;;;;;;5019510;28;20191;-70
2023/10/22 02:09:36;;;;;;;0.90;0.90;;;18.50;80.00;;;;;;5015673;28;20203;-71
2023/10/22 02:12:04;;;;;;;0.60;0.60;;;18.60;80.00;;;;;;5017128;28;20191;-70
2023/10/22 02:14:30;;;;;;;0.93;0.93;;;18.50;79.90;;;;;;5008714;28;20203;-70
2023/10/22 02:16:55;;;;;;;0.80;0.80;;;18.60;80.10;;;;;;5017234;28;20183;-70
2023/10/22 02:19:21;;;;;;;0.85;0.80;;;18.60;80.00;;;;;;5031755;28;20261;-70
2023/10/22 02:21:47;;;;;;;0.80;0.80;;;18.60;80.00;;;;;;5016796;28;20183;-71
2023/10/22 02:24:13;;;;;;;0.70;0.70;;;18.60;80.10;;;;;;5016492;28;20211;-70
2023/10/22 02:26:39;;;;;;;1.77;0.77;;;18.60;80.10;;;;;;5033396;28;20556;-70
2023/10/22 02:29:08;;;;;;;0.98;0.90;;;18.60;80.00;;;;;;5016368;28;20238;-70
2023/10/22 02:31:34;;;;;;;1.38;0.95;;;18.60;80.10;;;;;;5015970;28;20206;-70
2023/10/22 02:34:06;;;;;;;0.80;0.80;;;18.60;80.10;;;;;;5015869;28;20230;-70
2023/10/22 02:36:33;;;;;;;0.80;0.80;;;18.60;80.00;;;;;;5009957;28;20211;-71
2023/10/22 02:39:00;;;;;;;0.90;0.82;;;18.60;80.00;;;;;;5024744;28;20189;-71
2023/10/22 02:41:26;;;;;;;0.70;0.70;;;18.60;79.90;;;;;;5003092;28;20191;-71
2023/10/22 02:43:52;;;;;;;0.95;0.80;;;18.50;79.90;;;;;;5004268;28;20206;-71
2023/10/22 02:46:18;;;;;;;0.90;0.90;;;18.60;80.00;;;;;;5013347;28;20200;-70
2023/10/22 02:48:44;;;;;;;1.08;0.98;;;18.60;79.90;;;;;;4999181;28;20698;-71
2023/10/22 02:51:09;;;;;;;0.90;0.80;;;18.50;79.80;;;;;;5016356;28;20187;-71
2023/10/22 02:53:36;;;;;;;0.68;0.60;;;18.60;79.90;;;;;;5015594;28;20207;-71
2023/10/22 02:56:02;;;;;;;0.68;0.68;;;18.50;80.60;;;;;;5019473;28;20191;-70
2023/10/22 02:58:31;;;;;;;0.60;0.60;;;18.50;79.80;;;;;;5002835;28;20191;-70
2023/10/22 03:01:09;;;;;;;0.80;0.80;;;18.50;79.80;;;;;;5019646;28;20195;-71
2023/10/22 03:03:39;;;;;;;0.90;0.90;;;18.50;79.70;;;;;;5028830;28;20213;-70
2023/10/22 03:06:10;;;;;;;0.95;0.90;;;18.50;79.80;;;;;;5036901;28;20198;-70
2023/10/22 03:08:39;;;;;;;0.70;0.70;;;18.60;79.90;;;;;;5018386;28;20345;-70
2023/10/22 03:11:05;;;;;;;0.73;0.73;;;18.50;79.80;;;;;;5002689;28;20219;-70
2023/10/22 03:13:33;;;;;;;0.90;0.90;;;18.50;79.90;;;;;;5019091;28;20294;-70
2023/10/22 03:16:15;;;;;;;1.52;0.80;;;18.50;79.80;;;;;;5016028;28;20639;-70
2023/10/22 03:18:44;;;;;;;0.70;0.70;;;18.60;79.80;;;;;;5019075;28;20191;-70
2023/10/22 03:21:30;;;;;;;0.90;0.90;;;18.60;79.70;;;;;;5010531;28;20270;-70
2023/10/22 03:23:56;;;;;;;0.93;0.90;;;18.50;79.60;;;;;;5026503;28;20210;-70
2023/10/22 03:26:22;;;;;;;0.95;0.70;;;18.50;79.70;;;;;;5010245;28;20201;-70
2023/10/22 03:28:50;;;;;;;0.85;0.80;;;18.50;79.70;;;;;;5018750;28;20206;-70
2023/10/22 03:31:16;;;;;;;1.00;0.95;;;18.50;79.60;;;;;;5018525;28;20671;-70
2023/10/22 03:33:42;;;;;;;0.70;0.70;;;18.50;79.60;;;;;;5007946;28;20202;-70
2023/10/22 03:36:11;;;;;;;0.77;0.77;;;18.50;79.60;;;;;;5019551;28;20195;-70
2023/10/22 03:38:38;;;;;;;0.80;0.80;;;18.50;79.60;;;;;;5025507;28;20207;-70
2023/10/22 03:41:05;;;;;;;0.95;0.95;;;18.50;79.70;;;;;;5023258;28;20271;-70
2023/10/22 03:43:34;;;;;;;1.20;1.10;;;18.50;79.70;;;;;;5021736;28;20201;-70
2023/10/22 03:46:01;;;;;;;1.08;1.08;;;18.50;79.60;;;;;;5029625;28;20277;-70
2023/10/22 03:48:28;;;;;;;1.17;1.08;;;18.50;79.70;;;;;;5020951;28;20206;-70
2023/10/22 03:50:55;;;;;;;1.25;1.10;;;18.50;79.70;;;;;;5019493;28;20192;-70
2023/10/22 03:53:23;;;;;;;1.00;1.00;;;18.50;79.60;;;;;;5033525;28;20194;-70
2023/10/22 03:55:50;;;;;;;1.38;1.27;;;18.50;79.60;;;;;;5023068;28;20227;-71
2023/10/22 03:58:15;;;;;;;1.40;1.30;;;18.50;79.70;;;;;;5009596;28;20187;-70
2023/10/22 04:00:41;;;;;;;1.42;1.10;;;18.50;79.50;;;;;;4998297;28;20643;-71
2023/10/22 04:03:11;;;;;;;1.33;1.10;;;18.50;79.60;;;;;;5025711;28;20214;-70
2023/10/22 04:05:37;;;;;;;1.00;1.00;;;18.50;79.60;;;;;;5004409;28;20203;-70
2023/10/22 04:08:03;;;;;;;1.10;1.00;;;18.50;79.60;;;;;;5016393;28;20209;-70
2023/10/22 04:10:29;;;;;;;1.25;1.15;;;18.50;80.40;;;;;;5034056;28;20201;-70
2023/10/22 04:12:55;;;;;;;1.25;1.10;;;18.50;79.50;;;;;;5049679;28;20250;-70
2023/10/22 04:15:20;;;;;;;1.10;1.10;;;18.50;80.60;;;;;;5054250;28;20260;-70
2023/10/22 04:17:47;;;;;;;0.93;0.77;;;18.50;83.00;;;;;;5020255;28;20184;-70
2023/10/22 04:20:13;;;;;;;1.30;1.10;;;18.50;79.90;;;;;;4998431;28;20192;-70
2023/10/22 04:22:42;;;;;;;1.05;0.90;;;18.50;79.80;;;;;;5013479;28;20189;-70
2023/10/22 04:25:08;;;;;;;1.00;1.00;;;18.50;80.70;;;;;;5025521;28;20286;-71
2023/10/22 04:27:34;;;;;;;0.80;0.80;;;18.50;82.80;;;;;;5005024;28;20188;-72
2023/10/22 04:30:00;;;;;;;1.08;0.90;;;18.50;87.10;;;;;;5014333;28;20271;-70
2023/10/22 04:32:26;;;;;;;1.05;1.00;;;18.50;89.10;;;;;;5018352;28;20219;-71
2023/10/22 04:34:51;;;;;;;1.40;1.30;;;18.50;86.60;;;;;;5002619;28;20208;-70
2023/10/22 04:37:19;;;;;;;1.13;1.00;;;18.50;87.80;;;;;;5024906;28;20188;-71
2023/10/22 04:39:45;;;;;;;1.35;1.25;;;18.50;88.10;;;;;;5004138;28;20219;-70
2023/10/22 04:42:11;;;;;;;1.20;1.10;;;18.50;88.60;;;;;;5016636;28;20221;-71
2023/10/22 04:44:36;;;;;;;2.63;1.25;;;18.50;87.00;;;;;;5010856;28;20276;-71
2023/10/22 04:47:02;;;;;;;1.10;1.10;;;18.50;87.70;;;;;;5035251;28;20252;-69
2023/10/22 04:49:31;;;;;;;1.40;1.30;;;18.50;91.00;;;;;;5007692;28;20221;-71
2023/10/22 04:51:56;;;;;;;1.00;1.00;;;18.50;86.50;;;;;;4997798;28;20192;-70
2023/10/22 04:54:23;;;;;;;1.20;1.10;;;18.50;85.50;;;;;;5000948;28;20265;-71
2023/10/22 04:56:49;;;;;;;1.00;0.95;;;18.50;83.70;;;;;;5009663;28;20188;-70
2023/10/22 04:59:15;;;;;;;1.10;1.00;;;18.50;81.30;;;;;;5007765;28;20199;-70
2023/10/22 05:01:41;;;;;;;1.30;1.20;;;18.50;79.80;;;;;;5024718;28;20222;-71
2023/10/22 05:04:06;;;;;;;1.50;1.10;;;18.50;79.60;;;;;;5023871;28;20210;-70
2023/10/22 05:06:33;;;;;;;1.15;1.10;;;18.50;79.50;;;;;;5042367;28;20657;-70
2023/10/22 05:08:59;;;;;;;0.80;0.80;;;18.50;79.80;;;;;;5026831;28;20217;-70
2023/10/22 05:11:26;;;;;;;1.23;1.13;;;18.40;79.40;;;;;;5007132;28;20187;-70
2023/10/22 05:13:52;;;;;;;1.00;1.00;;;18.50;79.40;;;;;;5033938;28;20206;-70
2023/10/22 05:16:17;;;;;;;1.00;0.93;;;18.50;79.40;;;;;;5024026;28;20190;-70
2023/10/22 05:18:43;;;;;;;1.05;0.95;;;18.50;79.40;;;;;;5017226;28;20236;-70
2023/10/22 05:21:09;;;;;;;1.00;0.95;;;18.50;79.40;;;;;;5019540;28;20622;-71
2023/10/22 05:23:35;;;;;;;1.00;0.90;;;18.50;79.50;;;;;;5016236;28;20195;-70
2023/10/22 05:26:12;;;;;;;1.00;1.00;;;18.50;79.70;;;;;;5012874;28;20202;-70
2023/10/22 05:28:39;;;;;;;1.25;1.15;;;18.50;80.00;;;;;;5006701;28;20219;-70
2023/10/22 05:31:18;;;;;;;0.90;0.90;;;18.50;80.10;;;;;;5016251;28;20187;-70
2023/10/22 05:33:44;;;;;;;1.30;1.20;;;18.40;79.90;;;;;;5014794;28;20211;-71
2023/10/22 05:36:28;;;;;;;1.20;1.10;;;18.50;79.80;;;;;;5030530;28;20657;-70
2023/10/22 05:38:54;;;;;;;1.20;1.10;;;18.40;79.80;;;;;;4996377;28;20192;-71
2023/10/22 05:41:22;;;;;;;1.05;1.00;;;18.50;80.20;;;;;;5041437;28;20194;-71
2023/10/22 05:43:56;;;;;;;1.00;0.90;;;18.50;80.80;;;;;;5026762;28;20215;-70
2023/10/22 05:46:26;;;;;;;0.90;0.80;;;18.50;80.60;;;;;;5017238;28;20191;-70
2023/10/22 05:48:52;;;;;;;1.05;0.80;;;18.50;81.60;;;;;;5050367;28;20569;-70
2023/10/22 05:51:18;;;;;;;0.73;0.73;;;18.50;80.00;;;;;;5003042;28;20206;-70
2023/10/22 05:53:47;;;;;;;1.00;1.00;;;18.40;82.30;;;;;;4996462;28;20200;-70
2023/10/22 05:56:13;;;;;;;0.98;0.80;;;18.50;81.50;;;;;;5039878;28;20183;-71
2023/10/22 05:58:39;;;;;;;1.40;1.30;;;18.40;81.10;;;;;;5017906;28;20187;-71
2023/10/22 06:01:06;;;;;;;1.00;1.00;;;18.40;81.10;;;;;;5028658;28;20581;-70
2023/10/22 06:03:32;;;;;;;1.30;1.20;;;18.50;81.20;;;;;;5022175;28;20724;-70
2023/10/22 06:05:58;;;;;;;0.90;0.90;;;18.40;80.30;;;;;;5045304;28;20186;-70
2023/10/22 06:08:23;;;;;;;1.10;1.00;;;18.50;79.60;;;;;;5015799;28;20225;-69
2023/10/22 06:10:49;;;;;;;1.30;1.20;;;18.50;81.10;;;;;;5025586;28;20244;-71
2023/10/22 06:13:15;;;;;;;1.10;1.00;;;18.50;82.20;;;;;;5032086;28;20196;-70
2023/10/22 06:15:44;;;;;;;1.15;1.00;;;18.40;79.90;;;;;;5025862;28;20194;-69
2023/10/22 06:18:10;;;;;;;1.05;1.00;;;18.40;81.20;;;;;;5016061;28;20203;-70
2023/10/22 06:20:37;;;;;;;1.00;1.00;;;18.50;82.80;;;;;;5024425;28;20195;-71
2023/10/22 06:23:04;;;;;;;1.13;1.00;;;18.50;80.10;;;;;;5007683;28;20187;-69
2023/10/22 06:25:34;;;;;;;1.20;1.10;;;18.40;82.10;;;;;;5019994;28;20238;-70
2023/10/22 06:28:01;;;;;;;1.25;0.90;;;18.50;81.80;;;;;;5018937;28;20362;-70
2023/10/22 06:30:28;;;;;;;1.00;1.00;;;18.50;81.30;;;;;;5032974;28;20186;-70
2023/10/22 06:32:58;;;;;;;0.80;0.80;;;18.40;80.90;;;;;;5007469;28;20199;-71
2023/10/22 06:35:28;;;;;;;1.20;1.10;;;18.50;83.70;;;;;;5043450;28;20690;-71
2023/10/22 06:37:54;;;;;;;1.30;1.20;;;18.40;82.60;;;;;;5005179;28;20188;-71
2023/10/22 06:40:22;;;;;;;1.00;1.00;;;18.50;82.40;;;;;;5031188;28;20201;-70
2023/10/22 06:42:48;;;;;;;1.40;1.10;;;18.50;84.20;;;;;;5038055;28;20190;-70
2023/10/22 06:45:18;;;;;;;1.30;1.20;;;18.50;84.10;;;;;;5011203;28;20275;-71
2023/10/22 06:47:46;;;;;;;1.30;1.20;;;18.40;85.20;;;;;;5017500;28;20698;-69
2023/10/22 06:50:13;;;;;;;1.38;1.27;;;18.40;85.20;;;;;;5026988;28;20191;-70
2023/10/22 06:52:41;;;;;;;1.10;1.00;;;18.40;85.90;;;;;;5025007;28;20245;-70
2023/10/22 06:55:08;;;;;;;1.17;1.17;;;18.40;86.60;;;;;;5024830;28;20241;-69
2023/10/22 06:57:33;;;;;;;1.10;1.00;;;18.40;87.80;;;;;;5018961;28;20188;-70
2023/10/22 06:59:59;;;;;;;1.05;1.00;;;18.40;86.10;;;;;;5051789;28;20196;-70
2023/10/22 07:02:26;;;;;;;0.93;0.90;;;18.40;88.80;;;;;;5039102;28;20195;-70
2023/10/22 07:04:56;;;;;;;0.90;0.90;;;18.40;86.00;;;;;;5012251;28;20210;-70
2023/10/22 07:07:24;;;;;;;1.08;1.08;;;18.40;78.20;;;;;;5027751;28;20696;-71
2023/10/22 07:09:50;;;;;;;1.23;1.13;;;18.40;78.80;;;;;;5015069;28;20293;-70
2023/10/22 07:12:16;;;;;;;1.10;1.00;;;18.40;78.80;;;;;;5042999;28;20195;-69
2023/10/22 07:14:43;;;;;;;0.77;0.77;;;18.40;78.80;;;;;;5027182;28;20268;-71
2023/10/22 07:17:09;;;;;;;1.20;1.08;;;18.40;78.90;;;;;;5019023;28;20336;-70
2023/10/22 07:19:36;;;;;;;1.13;1.02;;;18.40;78.70;;;;;;5037138;28;20199;-70
2023/10/22 07:22:02;;;;;;;1.33;1.13;;;18.40;78.70;;;;;;5007972;28;20195;-69
2023/10/22 07:24:28;;;;;;;1.27;1.00;;;18.40;78.70;;;;;;5018828;28;20218;-70
2023/10/22 07:26:54;;;;;;;0.98;0.98;;;18.40;78.60;;;;;;5018557;28;20286;-70
2023/10/22 07:29:20;;;;;;;1.48;0.90;;;18.40;78.60;;;;;;5024077;28;20764;-70
2023/10/22 07:31:48;;;;;;;1.10;1.10;;;18.50;78.60;;;;;;5024070;28;20211;-69
2023/10/22 07:34:14;;;;;;;1.00;0.90;;;18.50;78.60;;;;;;5023971;28;20214;-71
2023/10/22 07:36:40;;;;;;;1.00;0.90;;;18.50;78.60;;;;;;5029918;28;20187;-70
2023/10/22 07:39:06;;;;;;;0.88;0.88;;;18.50;78.50;;;;;;5004426;28;20203;-70
2023/10/22 07:41:32;;;;;;;5.90;1.10;;;18.50;78.50;;;;;;5042483;28;20281;-71
2023/10/22 07:43:58;;;;;;;0.60;0.60;;;18.50;78.50;;;;;;5026553;28;20293;-71
2023/10/22 07:46:25;;;;;;;1.02;0.90;;;18.60;78.70;;;;;;5032139;28;20195;-71
2023/10/22 07:48:51;;;;;;;1.50;1.00;;;18.50;78.60;;;;;;5040460;28;20208;-71
2023/10/22 07:51:19;;;;;;;1.50;0.88;;;18.60;78.60;;;;;;5041290;28;20201;-71
2023/10/22 07:53:46;;;;;;;3.67;1.25;;;18.60;78.60;;;;;;5033851;28;20213;-71
2023/10/22 07:56:17;;;;;;;0.80;0.80;;;18.60;78.60;;;;;;5001505;28;20217;-70
2023/10/22 07:58:42;;;;;;;1.33;0.80;;;18.60;78.60;;;;;;5034209;28;20185;-70
2023/10/22 08:01:08;;;;;;;0.65;0.65;;;18.60;78.60;;;;;;5038582;28;20187;-71
2023/10/22 08:03:34;;;;;;;0.75;0.75;;;18.60;78.70;;;;;;5036361;28;20212;-70
2023/10/22 08:06:03;;;;;;;0.68;0.60;;;18.60;78.70;;;;;;4998158;28;20691;-71
2023/10/22 08:08:29;;;;;;;1.13;0.88;;;18.60;78.60;;;;;;5021089;28;20210;-71
2023/10/22 08:11:00;;;;;;;1.00;0.90;;;18.60;78.60;;;;;;5015500;28;20626;-71
2023/10/22 08:13:27;;;;;;;1.30;0.70;;;18.60;78.60;;;;;;5017196;28;20191;-71
2023/10/22 08:15:53;;;;;;;0.80;0.80;;;18.60;78.70;;;;;;5019729;28;20180;-71
2023/10/22 08:18:19;;;;;;;1.08;0.80;;;18.70;78.80;;;;;;5006825;28;20226;-71
2023/10/22 08:20:45;;;;;;;1.35;0.90;;;18.70;78.60;;;;;;5020285;28;20205;-71
2023/10/22 08:23:11;;;;;;;0.90;0.90;;;18.60;78.60;;;;;;5017588;28;20196;-71
2023/10/22 08:25:37;;;;;;;1.00;0.70;;;18.60;78.60;;;;;;5040038;28;20191;-71
2023/10/22 08:28:03;;;;;;;1.40;0.85;;;18.70;78.80;;;;;;5027831;28;20190;-70
2023/10/22 08:30:29;;;;;;;0.60;0.60;;;18.70;78.80;;;;;;5017766;28;20184;-72
2023/10/22 08:32:54;;;;;;;0.80;0.80;;;18.70;78.60;;;;;;5010613;28;20194;-71
2023/10/22 08:35:21;;;;;;;2.45;0.98;;;18.70;78.70;;;;;;5028336;28;20216;-71
2023/10/22 08:37:47;;;;;;;0.60;0.60;;;18.70;78.60;;;;;;5043400;28;20189;-71
2023/10/22 08:40:12;;;;;;;0.88;0.63;;;18.70;79.40;;;;;;5022858;28;20204;-71
2023/10/22 08:42:38;;;;;;;1.95;0.82;;;18.70;78.60;;;;;;5034278;28;20187;-71
2023/10/22 08:45:09;;;;;;;1.52;0.93;;;18.70;78.60;;;;;;5000702;28;20301;-71
2023/10/22 08:47:35;;;;;;;0.98;0.88;;;18.70;78.60;;;;;;5022364;28;20188;-70
2023/10/22 08:50:02;;;;;;;0.93;0.70;;;18.70;78.60;;;;;;5013663;28;20210;-71
2023/10/22 08:52:28;;;;;;;1.00;1.00;;;18.70;78.60;;;;;;5021874;28;20202;-71
2023/10/22 08:54:55;;;;;;;1.38;1.00;;;18.70;78.60;;;;;;5044673;28;20253;-71
2023/10/22 08:57:24;;;;;;;2.13;0.57;;;18.70;78.60;;;;;;5039429;28;20191;-73
2023/10/22 08:59:50;;;;;;;2.50;0.80;;;18.70;79.00;;;;;;5022687;28;20221;-71
2023/10/22 09:02:21;;;;;;;1.02;0.70;;;18.70;78.80;;;;;;5003967;28;20195;-70
2023/10/22 09:04:47;;;;;;;1.05;0.90;;;18.70;78.80;;;;;;5023540;28;20219;-70
2023/10/22 09:07:13;;;;;;;1.08;0.77;;;18.70;78.80;;;;;;5044685;28;20193;-70
2023/10/22 09:09:40;;;;;;;0.80;0.80;;;18.70;78.70;;;;;;5033840;28;20219;-71
2023/10/22 09:12:14;;;;;;;0.73;0.70;;;18.70;78.60;;;;;;5010053;28;20203;-71
2023/10/22 09:14:44;;;;;;;1.52;0.70;;;18.70;78.60;;;;;;5026085;28;20271;-70
2023/10/22 09:17:19;;;;;;;1.13;0.85;;;18.70;78.70;;;;;;5002390;28;20211;-70
2023/10/22 09:19:51;;;;;;;0.50;0.50;;;18.70;78.70;;;;;;5021106;28;20658;-71
2023/10/22 09:22:26;;;;;;;0.85;0.80;;;18.70;78.90;;;;;;5005033;28;20194;-70
2023/10/22 09:24:57;;;;;;;1.40;0.68;;;18.70;78.70;;;;;;5032700;28;20209;-69
2023/10/22 09:27:29;;;;;;;1.02;0.80;;;18.70;78.70;;;;;;5024060;28;20197;-70
2023/10/22 09:29:58;;;;;;;1.15;0.75;;;18.70;78.80;;;;;;5029649;28;20229;-70
2023/10/22 09:32:25;;;;;;;3.13;0.88;;;18.70;78.80;;;;;;5028210;28;20191;-71
2023/10/22 09:34:51;;;;;;;0.70;0.70;;;18.70;78.60;;;;;;5035769;28;20210;-72
2023/10/22 09:37:16;;;;;;;2.25;0.70;;;18.80;79.10;;;;;;5006939;28;20205;-71
2023/10/22 09:39:44;;;;;;;1.67;0.50;;;18.80;79.00;;;;;;5021893;28;20196;-72
2023/10/22 09:42:15;;;;;;;0.93;0.80;;;18.80;78.90;;;;;;5028229;28;20591;-71
2023/10/22 09:44:43;;;;;;;0.93;0.70;;;18.70;78.80;;;;;;5015823;28;20233;-72
2023/10/22 09:47:14;;;;;;;1.25;0.70;;;18.80;80.40;;;;;;5012299;28;20198;-72
2023/10/22 09:49:44;;;;;;;1.45;0.90;;;18.80;82.00;;;;;;5024517;28;20430;-71
2023/10/22 09:52:13;;;;;;;1.02;0.70;;;18.80;82.50;;;;;;5020911;28;20187;-72
2023/10/22 09:54:40;;;;;;;1.00;0.60;;;18.80;78.00;;;;;;5037156;28;20211;-71
2023/10/22 09:57:15;;;;;;;0.88;0.70;;;18.80;78.70;;;;;;5021186;28;20205;-71
2023/10/22 09:59:42;;;;;;;1.05;0.77;;;18.80;78.70;;;;;;5032261;28;20203;-72
2023/10/22 10:02:16;;;;;;;0.52;0.52;;;18.80;78.70;;;;;;5001191;28;20314;-72
2023/10/22 10:04:48;;;;;;;1.35;0.75;;;18.80;78.80;;;;;;5026810;28;20225;-72
2023/10/22 10:07:14;;;;;;;0.60;0.60;;;18.80;78.90;;;;;;5013408;28;20281;-72
2023/10/22 10:09:41;;;;;;;0.60;0.60;;;18.80;78.90;;;;;;5048444;28;20210;-72
2023/10/22 10:12:08;;;;;;;0.95;0.50;;;18.80;78.90;;;;;;5007288;28;20188;-72
2023/10/22 10:14:45;;;;;;;1.17;0.80;;;18.80;79.00;;;;;;5028153;28;20214;-72
2023/10/22 10:17:13;;;;;;;0.70;0.70;;;18.80;78.90;;;;;;5008123;28;20194;-72
2023/10/22 10:19:39;;;;;;;1.52;0.50;;;18.80;78.90;;;;;;5038538;28;20195;-72
2023/10/22 10:22:06;;;;;;;1.35;0.60;;;18.80;78.70;;;;;;5003560;28;20206;-72
2023/10/22 10:24:33;;;;;;;1.42;0.70;;;18.80;78.70;;;;;;5025677;28;20247;-71
2023/10/22 10:26:59;;;;;;;2.45;0.80;;;18.80;78.60;;;;;;5021046;28;20222;-71
2023/10/22 10:29:32;;;;;;;1.58;0.60;;;18.80;78.70;;;;;;5019872;28;20207;-71
2023/10/22 10:32:22;;;;;;;1.27;0.60;;;18.80;78.50;;;;;;4996065;28;20592;-72
2023/10/22 10:34:49;;;;;;;1.23;0.60;;;18.90;78.50;;;;;;5031456;28;20215;-71
2023/10/22 10:37:18;;;;;;;1.25;0.68;;;18.90;78.40;;;;;;5028659;28;20182;-71
2023/10/22 10:39:45;;;;;;;1.40;0.70;;;18.80;78.10;;;;;;5042447;28;20720;-71
2023/10/22 10:42:36;;;;;;;1.20;0.70;;;18.80;78.20;;;;;;5030801;28;20198;-71
2023/10/22 10:45:05;;;;;;;0.68;0.68;;;18.80;78.10;;;;;;5032970;28;20242;-71
2023/10/22 10:47:34;;;;;;;1.30;0.85;;;18.90;78.30;;;;;;5033510;28;20286;-71
2023/10/22 10:50:07;;;;;;;2.35;0.70;;;18.90;78.10;;;;;;5032873;28;20219;-71
2023/10/22 10:52:48;;;;;;;0.70;0.70;;;18.80;77.90;;;;;;5008950;28;20318;-71
2023/10/22 10:55:20;;;;;;;1.27;0.90;;;18.80;78.00;;;;;;5027563;28;20208;-71
2023/10/22 10:57:51;;;;;;;1.75;0.60;;;18.90;78.10;;;;;;5005001;28;20214;-70
2023/10/22 11:00:27;;;;;;;0.80;0.60;;;18.80;78.00;;;;;;5043071;28;20186;-71
2023/10/22 11:02:55;;;;;;;0.90;0.60;;;18.90;78.00;;;;;;5036567;28;20587;-71
2023/10/22 11:05:37;;;;;;;0.95;0.60;;;18.90;78.00;;;;;;5011579;28;20217;-71
2023/10/22 11:08:06;;;;;;;1.20;0.80;;;18.90;78.00;;;;;;5015770;28;20248;-71
2023/10/22 11:10:31;;;;;;;2.05;0.70;;;18.90;78.00;;;;;;5019911;28;20194;-70
2023/10/22 11:13:07;;;;;;;0.90;0.70;;;18.90;77.90;;;;;;5042967;28;20179;-71
2023/10/22 11:15:35;;;;;;;0.65;0.65;;;18.90;77.90;;;;;;5019357;28;20221;-72
2023/10/22 11:18:12;;;;;;;1.42;0.70;;;18.90;77.60;;;;;;5032388;28;20192;-71
2023/10/22 11:20:38;;;;;;;0.88;0.50;;;18.90;77.70;;;;;;5037855;28;20248;-71
2023/10/22 11:23:17;;;;;;;0.90;0.60;;;18.90;77.70;;;;;;5036382;28;20176;-71
2023/10/22 11:25:43;;;;;;;2.08;0.80;;;18.90;77.60;;;;;;5030868;28;20290;-71
2023/10/22 11:28:10;;;;;;;0.90;0.60;;;18.90;77.70;;;;;;5048826;28;20191;-70
2023/10/22 11:30:39;;;;;;;1.25;0.60;;;18.90;77.70;;;;;;5010625;28;20197;-71
2023/10/22 11:33:28;;;;;;;1.30;0.70;;;18.90;77.70;;;;;;5018731;28;20200;-72
2023/10/22 11:35:57;;;;;;;1.00;0.60;;;18.90;77.70;;;;;;5043376;28;20187;-71
2023/10/22 11:38:23;;;;;;;0.95;0.60;;;18.90;77.60;;;;;;5010708;28;20236;-71
2023/10/22 11:40:59;;;;;;;0.50;0.50;;;18.90;77.60;;;;;;5022577;28;20198;-71
2023/10/22 11:43:26;;;;;;;0.80;0.55;;;18.90;77.50;;;;;;5022758;28;20182;-72
2023/10/22 11:45:56;;;;;;;0.98;0.75;;;18.90;77.20;;;;;;5028880;28;20191;-71
2023/10/22 11:48:25;;;;;;;1.25;0.70;;;18.90;78.00;;;;;;5023595;28;20202;-71
2023/10/22 11:51:03;;;;;;;0.82;0.70;;;18.90;77.20;;;;;;5028620;28;20187;-71
2023/10/22 11:53:43;;;;;;;1.88;0.73;;;18.90;77.50;;;;;;5018043;28;20187;-71
2023/10/22 11:56:09;;;;;;;1.05;0.63;;;18.90;77.40;;;;;;5008992;28;20186;-71
2023/10/22 11:58:35;;;;;;;1.20;0.60;;;18.90;77.30;;;;;;5018553;28;20288;-72
2023/10/22 12:01:02;;;;;;;1.08;0.80;;;18.90;77.60;;;;;;5035943;28;20634;-70
2023/10/22 12:03:28;;;;;;;1.00;0.60;;;18.90;77.40;;;;;;5043596;28;20195;-69
2023/10/22 12:05:53;;;;;;;1.52;0.88;;;18.90;77.60;;;;;;5027801;28;20202;-72
2023/10/22 12:08:19;;;;;;;1.05;0.60;;;18.90;77.50;;;;;;5001793;28;20219;-70
2023/10/22 12:10:45;;;;;;;0.50;0.50;;;18.90;77.20;;;;;;5027067;28;20653;-69
2023/10/22 12:13:14;;;;;;;0.57;0.50;;;18.90;77.20;;;;;;5028357;28;20182;-70
2023/10/22 12:15:39;;;;;;;1.02;0.60;;;18.90;77.30;;;;;;5034313;28;20203;-71
2023/10/22 12:18:07;;;;;;;0.75;0.65;;;18.90;77.10;;;;;;5021226;28;20190;-71
2023/10/22 12:20:33;;;;;;;0.80;0.60;;;18.90;77.00;;;;;;5017538;28;20191;-71
2023/10/22 12:22:59;;;;;;;0.60;0.50;;;18.90;78.40;;;;;;5025305;28;20194;-71
2023/10/22 12:25:29;;;;;;;0.98;0.57;;;18.90;77.20;;;;;;5012225;28;20264;-71
2023/10/22 12:27:55;;;;;;;0.70;0.43;;;18.90;76.90;;;;;;5023525;28;20229;-71
2023/10/22 12:30:21;;;;;;;0.43;0.43;;;18.90;76.90;;;;;;5022194;28;20206;-71
2023/10/22 12:32:46;;;;;;;0.52;0.52;;;18.90;77.00;;;;;;5033775;28;20196;-71
2023/10/22 12:35:13;;;;;;;0.60;0.60;;;18.90;77.00;;;;;;5024703;28;20214;-71
2023/10/22 12:37:39;;;;;;;1.77;0.85;;;19.00;77.00;;;;;;5038597;28;20253;-71
2023/10/22 12:40:07;;;;;;;1.10;0.50;;;19.00;77.10;;;;;;5038951;28;20195;-70
2023/10/22 12:42:33;;;;;;;0.82;0.60;;;18.90;77.00;;;;;;5021443;28;20246;-69
2023/10/22 12:44:59;;;;;;;0.82;0.68;;;19.00;77.40;;;;;;5017153;28;20215;-70
2023/10/22 12:47:25;;;;;;;0.75;0.40;;;18.90;77.10;;;;;;5027562;28;20201;-70
2023/10/22 12:49:50;;;;;;;0.80;0.70;;;18.90;77.30;;;;;;5007852;28;20227;-71
2023/10/22 12:52:16;;;;;;;1.08;0.60;;;18.90;76.70;;;;;;5000990;28;20188;-71